createdAt,value
2019-03-24T00:00:26.566Z,3.22
2019-03-24T00:01:41.108Z,3.60
2019-03-24T00:02:39.893Z,3.25
2019-03-24T00:03:43.063Z,3.15
2019-03-24T00:04:46.193Z,2.72
2019-03-24T00:05:49.353Z,3.42
2019-03-24T00:06:52.484Z,2.65
2019-03-24T00:07:56.947Z,3.08
2019-03-24T00:09:00.287Z,2.95
2019-03-24T00:10:04.128Z,3.33
2019-03-24T00:11:07.303Z,2.52
2019-03-24T00:12:10.489Z,2.67
2019-03-24T00:13:14.125Z,3.58
2019-03-24T00:14:17.241Z,2.87
2019-03-24T00:15:26.085Z,2.58
2019-03-24T00:16:26.120Z,3.27
2019-03-24T00:17:29.357Z,2.67
2019-03-24T00:18:32.658Z,3.12
2019-03-24T00:19:35.802Z,3.62
2019-03-24T00:20:39.057Z,3.67
2019-03-24T00:21:42.315Z,3.17
2019-03-24T00:22:45.854Z,3.62
2019-03-24T00:23:49.287Z,2.98
2019-03-24T00:24:52.537Z,3.08
2019-03-24T00:25:55.768Z,2.87
2019-03-24T00:26:58.892Z,3.12
2019-03-24T00:28:02.280Z,3.30
2019-03-24T00:29:05.512Z,3.05
2019-03-24T00:30:10.481Z,3.10
2019-03-24T00:31:13.920Z,3.05
2019-03-24T00:32:17.354Z,3.27
2019-03-24T00:33:20.837Z,3.20
2019-03-24T00:34:24.245Z,3.45
2019-03-24T00:35:27.614Z,3.35
2019-03-24T00:36:31.047Z,3.45
2019-03-24T00:37:34.439Z,3.12
2019-03-24T00:38:37.705Z,2.65
2019-03-24T00:39:40.984Z,3.42
2019-03-24T00:40:45.012Z,4.08
2019-03-24T00:41:48.206Z,3.50
2019-03-24T00:42:51.621Z,3.00
2019-03-24T00:43:55.130Z,3.30
2019-03-24T00:44:58.363Z,3.33
2019-03-24T00:46:01.883Z,3.00
2019-03-24T00:47:05.250Z,3.15
2019-03-24T00:48:09.025Z,3.30
2019-03-24T00:49:12.216Z,2.85
2019-03-24T00:50:15.462Z,3.50
2019-03-24T00:51:19.033Z,3.90
2019-03-24T00:52:22.214Z,3.02
2019-03-24T00:53:25.657Z,3.65
2019-03-24T00:54:29.019Z,3.10
2019-03-24T00:55:34.344Z,2.80
2019-03-24T00:56:37.594Z,3.08
2019-03-24T00:57:41.020Z,3.37
2019-03-24T00:58:44.384Z,3.00
2019-03-24T00:59:47.864Z,3.25
2019-03-24T01:00:51.853Z,3.02
2019-03-24T01:01:55.022Z,3.37
2019-03-24T01:02:58.699Z,3.08
2019-03-24T01:04:02.105Z,3.15
2019-03-24T01:05:06.203Z,3.12
2019-03-24T01:06:09.955Z,3.65
2019-03-24T01:07:13.658Z,2.65
2019-03-24T01:08:18.150Z,3.35
2019-03-24T01:09:22.202Z,3.75
2019-03-24T01:10:25.981Z,4.30
2019-03-24T01:11:31.218Z,2.95
2019-03-24T01:12:37.769Z,2.70
2019-03-24T01:13:42.727Z,3.62
2019-03-24T01:14:46.564Z,3.67
2019-03-24T01:15:50.949Z,3.12
2019-03-24T01:16:55.003Z,2.67
2019-03-24T01:17:58.714Z,2.92
2019-03-24T01:19:02.989Z,2.98
2019-03-24T01:20:07.356Z,2.92
2019-03-24T01:21:11.614Z,3.00
2019-03-24T01:22:16.626Z,2.87
2019-03-24T01:23:24.802Z,2.90
2019-03-24T01:24:29.770Z,2.90
2019-03-24T01:25:34.400Z,2.72
2019-03-24T01:26:38.783Z,2.62
2019-03-24T01:27:43.125Z,2.50
2019-03-24T01:28:47.233Z,2.90
2019-03-24T01:29:50.768Z,2.50
2019-03-24T01:30:54.284Z,2.72
2019-03-24T01:31:58.205Z,2.60
2019-03-24T01:33:03.230Z,2.67
2019-03-24T01:34:08.028Z,3.40
2019-03-24T01:35:11.987Z,3.00
2019-03-24T01:36:15.632Z,2.62
2019-03-24T01:37:19.563Z,2.30
2019-03-24T01:38:24.043Z,2.80
2019-03-24T01:39:27.929Z,2.95
2019-03-24T01:40:31.889Z,2.00
2019-03-24T01:41:37.028Z,2.30
2019-03-24T01:42:41.416Z,2.50
2019-03-24T01:43:47.319Z,2.10
2019-03-24T01:44:52.231Z,2.55
2019-03-24T01:45:58.761Z,2.55
2019-03-24T01:47:03.457Z,2.47
2019-03-24T01:48:09.056Z,2.33
2019-03-24T01:49:13.753Z,2.22
2019-03-24T01:50:18.301Z,2.30
2019-03-24T01:51:21.834Z,2.45
2019-03-24T01:52:25.026Z,2.60
2019-03-24T01:53:28.182Z,2.50
2019-03-24T01:54:31.464Z,2.35
2019-03-24T01:55:34.694Z,2.50
2019-03-24T01:56:37.946Z,2.22
2019-03-24T01:57:41.119Z,2.20
2019-03-24T01:58:44.281Z,2.22
2019-03-24T01:59:49.325Z,2.72
2019-03-24T02:00:52.857Z,2.47
2019-03-24T02:01:56.093Z,3.33
2019-03-24T02:02:59.337Z,2.50
2019-03-24T02:04:02.437Z,2.30
2019-03-24T02:05:06.904Z,2.77
2019-03-24T02:06:10.269Z,2.42
2019-03-24T02:07:13.722Z,2.22
2019-03-24T02:08:17.095Z,2.20
2019-03-24T02:09:20.351Z,2.20
2019-03-24T02:10:23.619Z,2.40
2019-03-24T02:11:27.055Z,2.52
2019-03-24T02:12:30.459Z,2.62
2019-03-24T02:13:33.752Z,2.50
2019-03-24T02:14:37.107Z,2.50
2019-03-24T02:15:40.305Z,2.67
2019-03-24T02:16:43.658Z,2.22
2019-03-24T02:17:46.800Z,2.90
2019-03-24T02:18:50.032Z,2.33
2019-03-24T02:19:53.319Z,2.70
2019-03-24T02:20:58.264Z,2.45
2019-03-24T02:22:01.814Z,2.95
2019-03-24T02:23:05.273Z,2.22
2019-03-24T02:24:09.714Z,2.87
2019-03-24T02:25:13.385Z,2.55
2019-03-24T02:26:16.523Z,2.17
2019-03-24T02:27:19.676Z,1.90
2019-03-24T02:28:22.856Z,2.22
2019-03-24T02:29:26.246Z,2.27
2019-03-24T02:30:29.418Z,2.52
2019-03-24T02:31:32.848Z,2.05
2019-03-24T02:32:36.336Z,2.20
2019-03-24T02:33:39.691Z,2.70
2019-03-24T02:34:43.039Z,2.90
2019-03-24T02:35:46.304Z,2.62
2019-03-24T02:36:50.145Z,2.60
2019-03-24T02:37:53.251Z,3.10
2019-03-24T02:38:56.793Z,2.70
2019-03-24T02:39:59.947Z,3.08
2019-03-24T02:41:03.048Z,3.60
2019-03-24T02:42:06.219Z,3.17
2019-03-24T02:43:09.425Z,3.08
2019-03-24T02:44:12.601Z,3.47
2019-03-24T02:45:15.722Z,2.98
2019-03-24T02:46:24.623Z,3.33
2019-03-24T02:47:23.947Z,2.85
2019-03-24T02:48:27.256Z,3.70
2019-03-24T02:49:30.604Z,2.98
2019-03-24T02:50:33.856Z,3.85
2019-03-24T02:51:37.214Z,3.70
2019-03-24T02:52:40.421Z,3.90
2019-03-24T02:53:44.762Z,3.42
2019-03-24T02:54:48.003Z,3.40
2019-03-24T02:55:51.468Z,4.22
2019-03-24T02:56:54.728Z,2.98
2019-03-24T02:57:57.915Z,2.98
2019-03-24T02:59:01.260Z,3.15
2019-03-24T03:00:06.156Z,2.92
2019-03-24T03:01:09.331Z,3.12
2019-03-24T03:02:12.500Z,3.33
2019-03-24T03:03:16.029Z,2.70
2019-03-24T03:04:19.300Z,2.70
2019-03-24T03:05:22.748Z,3.15
2019-03-24T03:06:26.223Z,3.20
2019-03-24T03:07:29.653Z,2.95
2019-03-24T03:08:33.027Z,3.62
2019-03-24T03:09:36.451Z,3.00
2019-03-24T03:10:39.594Z,3.25
2019-03-24T03:11:42.718Z,2.52
2019-03-24T03:12:47.749Z,2.87
2019-03-24T03:13:51.517Z,2.77
2019-03-24T03:14:54.917Z,2.62
2019-03-24T03:15:58.386Z,2.77
2019-03-24T03:17:01.720Z,3.20
2019-03-24T03:18:05.042Z,3.40
2019-03-24T03:19:08.269Z,3.17
2019-03-24T03:20:12.482Z,2.85
2019-03-24T03:21:15.934Z,3.10
2019-03-24T03:22:19.093Z,2.83
2019-03-24T03:23:22.272Z,3.35
2019-03-24T03:24:25.768Z,2.50
2019-03-24T03:25:29.027Z,2.50
2019-03-24T03:26:32.365Z,3.17
2019-03-24T03:27:35.635Z,2.80
2019-03-24T03:28:39.685Z,2.47
2019-03-24T03:29:42.932Z,2.87
2019-03-24T03:30:46.274Z,2.25
2019-03-24T03:31:49.759Z,2.77
2019-03-24T03:32:53.212Z,2.67
2019-03-24T03:33:56.647Z,2.67
2019-03-24T03:34:59.830Z,2.25
2019-03-24T03:36:03.105Z,3.67
2019-03-24T03:37:06.665Z,2.60
2019-03-24T03:38:09.922Z,2.35
2019-03-24T03:39:13.389Z,1.90
2019-03-24T03:40:17.134Z,2.40
2019-03-24T03:41:20.505Z,2.47
2019-03-24T03:42:23.795Z,3.12
2019-03-24T03:43:27.097Z,2.90
2019-03-24T03:44:30.904Z,2.60
2019-03-24T03:45:34.253Z,2.00
2019-03-24T03:46:51.493Z,2.33
2019-03-24T03:47:43.147Z,2.30
2019-03-24T03:48:46.372Z,2.83
2019-03-24T03:49:50.162Z,2.30
2019-03-24T03:50:53.639Z,2.30
2019-03-24T03:51:56.877Z,2.87
2019-03-24T03:53:00.322Z,2.45
2019-03-24T03:54:03.805Z,2.72
2019-03-24T03:55:07.590Z,2.25
2019-03-24T03:56:11.238Z,1.87
2019-03-24T03:57:14.459Z,2.42
2019-03-24T03:58:17.905Z,3.15
2019-03-24T03:59:21.083Z,2.67
2019-03-24T04:00:35.368Z,2.30
2019-03-24T04:01:38.477Z,2.30
2019-03-24T04:02:41.891Z,2.62
2019-03-24T04:03:45.233Z,2.40
2019-03-24T04:04:48.704Z,2.75
2019-03-24T04:05:51.968Z,2.10
2019-03-24T04:06:55.292Z,2.05
2019-03-24T04:07:58.811Z,1.50
2019-03-24T04:09:02.151Z,1.72
2019-03-24T04:10:05.865Z,1.45
2019-03-24T04:11:09.213Z,1.60
2019-03-24T04:12:12.575Z,2.25
2019-03-24T04:13:15.969Z,1.85
2019-03-24T04:14:19.308Z,1.85
2019-03-24T04:15:22.534Z,2.02
2019-03-24T04:16:25.683Z,1.82
2019-03-24T04:17:29.023Z,2.42
2019-03-24T04:18:32.394Z,1.70
2019-03-24T04:19:35.963Z,2.15
2019-03-24T04:20:39.168Z,1.70
2019-03-24T04:21:42.701Z,1.35
2019-03-24T04:22:46.160Z,1.47
2019-03-24T04:23:49.782Z,2.08
2019-03-24T04:24:52.999Z,1.82
2019-03-24T04:25:56.256Z,1.30
2019-03-24T04:26:59.408Z,1.95
2019-03-24T04:28:02.870Z,1.37
2019-03-24T04:29:06.134Z,1.72
2019-03-24T04:30:09.638Z,1.40
2019-03-24T04:31:12.883Z,1.75
2019-03-24T04:32:16.327Z,1.47
2019-03-24T04:33:19.482Z,1.37
2019-03-24T04:34:22.633Z,1.75
2019-03-24T04:35:27.764Z,1.57
2019-03-24T04:36:31.125Z,1.30
2019-03-24T04:37:34.659Z,1.72
2019-03-24T04:38:37.897Z,1.52
2019-03-24T04:39:41.390Z,1.20
2019-03-24T04:40:44.726Z,1.55
2019-03-24T04:41:48.029Z,1.50
2019-03-24T04:42:51.284Z,1.27
2019-03-24T04:43:54.529Z,1.47
2019-03-24T04:44:57.917Z,1.82
2019-03-24T04:46:01.348Z,1.12
2019-03-24T04:47:04.844Z,1.15
2019-03-24T04:48:08.287Z,1.07
2019-03-24T04:49:11.613Z,1.20
2019-03-24T04:50:15.203Z,1.50
2019-03-24T04:51:18.592Z,1.42
2019-03-24T04:52:21.875Z,1.42
2019-03-24T04:53:25.114Z,2.22
2019-03-24T04:54:28.593Z,1.07
2019-03-24T04:55:32.149Z,1.15
2019-03-24T04:56:35.423Z,1.90
2019-03-24T04:57:39.063Z,1.10
2019-03-24T04:58:44.027Z,1.40
2019-03-24T04:59:47.311Z,1.37
2019-03-24T05:00:50.527Z,1.50
2019-03-24T05:01:53.896Z,1.67
2019-03-24T05:02:57.390Z,1.47
2019-03-24T05:04:00.666Z,1.30
2019-03-24T05:05:03.903Z,1.82
2019-03-24T05:06:07.333Z,1.10
2019-03-24T05:07:10.863Z,1.95
2019-03-24T05:08:14.695Z,1.85
2019-03-24T05:09:17.869Z,1.80
2019-03-24T05:10:27.411Z,2.35
2019-03-24T05:11:30.666Z,1.67
2019-03-24T05:12:33.935Z,1.52
2019-03-24T05:13:37.102Z,1.55
2019-03-24T05:14:40.602Z,1.12
2019-03-24T05:15:43.849Z,1.70
2019-03-24T05:16:46.999Z,1.98
2019-03-24T05:17:50.621Z,1.92
2019-03-24T05:18:53.757Z,1.80
2019-03-24T05:19:57.237Z,1.55
2019-03-24T05:21:00.682Z,1.67
2019-03-24T05:22:04.026Z,1.65
2019-03-24T05:23:07.451Z,1.75
2019-03-24T05:24:10.636Z,1.90
2019-03-24T05:25:13.818Z,1.42
2019-03-24T05:26:17.168Z,1.45
2019-03-24T05:27:20.438Z,1.75
2019-03-24T05:28:23.899Z,2.27
2019-03-24T05:29:27.322Z,1.30
2019-03-24T05:30:30.480Z,1.80
2019-03-24T05:31:33.864Z,1.40
2019-03-24T05:32:37.000Z,1.82
2019-03-24T05:33:40.115Z,1.52
2019-03-24T05:34:43.516Z,1.52
2019-03-24T05:35:46.683Z,1.72
2019-03-24T05:36:50.276Z,2.00
2019-03-24T05:37:53.619Z,1.47
2019-03-24T05:38:56.911Z,2.00
2019-03-24T05:40:00.442Z,1.75
2019-03-24T05:41:03.700Z,2.62
2019-03-24T05:42:06.979Z,1.75
2019-03-24T05:43:10.156Z,1.60
2019-03-24T05:44:13.405Z,1.10
2019-03-24T05:45:16.505Z,1.67
2019-03-24T05:46:20.199Z,2.10
2019-03-24T05:47:23.477Z,1.35
2019-03-24T05:48:26.906Z,1.57
2019-03-24T05:49:30.234Z,0.82
2019-03-24T05:50:33.616Z,1.62
2019-03-24T05:51:36.931Z,1.75
2019-03-24T05:52:40.128Z,1.32
2019-03-24T05:53:43.275Z,1.47
2019-03-24T05:54:46.502Z,1.55
2019-03-24T05:55:49.638Z,1.42
2019-03-24T05:56:53.022Z,1.52
2019-03-24T05:57:58.090Z,1.92
2019-03-24T05:59:01.240Z,1.40
2019-03-24T06:00:05.255Z,1.55
2019-03-24T06:01:08.507Z,1.65
2019-03-24T06:02:11.882Z,1.70
2019-03-24T06:03:16.258Z,1.95
2019-03-24T06:04:19.506Z,1.50
2019-03-24T06:05:22.729Z,1.57
2019-03-24T06:06:26.319Z,2.10
2019-03-24T06:07:30.563Z,1.98
2019-03-24T06:08:35.796Z,2.15
2019-03-24T06:09:39.131Z,1.70
2019-03-24T06:10:42.602Z,1.65
2019-03-24T06:11:45.886Z,1.52
2019-03-24T06:12:49.355Z,2.50
2019-03-24T06:13:52.486Z,2.47
2019-03-24T06:14:56.217Z,2.08
2019-03-24T06:15:59.673Z,1.62
2019-03-24T06:17:03.123Z,1.60
2019-03-24T06:18:06.293Z,1.50
2019-03-24T06:19:09.939Z,1.07
2019-03-24T06:20:13.510Z,1.80
2019-03-24T06:21:16.677Z,1.65
2019-03-24T06:22:20.032Z,1.12
2019-03-24T06:23:23.289Z,1.70
2019-03-24T06:24:26.997Z,1.70
2019-03-24T06:25:30.411Z,1.42
2019-03-24T06:26:33.707Z,1.72
2019-03-24T06:27:36.854Z,2.20
2019-03-24T06:28:40.301Z,1.17
2019-03-24T06:29:43.761Z,1.30
2019-03-24T06:30:47.138Z,1.45
2019-03-24T06:31:50.382Z,1.90
2019-03-24T06:32:55.216Z,2.00
2019-03-24T06:33:58.662Z,1.55
2019-03-24T06:35:02.013Z,2.00
2019-03-24T06:36:05.483Z,2.25
2019-03-24T06:37:08.793Z,1.40
2019-03-24T06:38:12.246Z,1.95
2019-03-24T06:39:15.546Z,1.75
2019-03-24T06:40:19.917Z,1.87
2019-03-24T06:41:23.216Z,1.95
2019-03-24T06:42:26.428Z,2.02
2019-03-24T06:43:29.594Z,1.55
2019-03-24T06:44:32.839Z,1.52
2019-03-24T06:45:36.197Z,1.98
2019-03-24T06:46:39.495Z,1.55
2019-03-24T06:47:43.045Z,1.45
2019-03-24T06:48:46.414Z,1.50
2019-03-24T06:49:49.917Z,1.72
2019-03-24T06:50:54.343Z,1.82
2019-03-24T06:51:57.468Z,1.67
2019-03-24T06:53:00.743Z,1.85
2019-03-24T06:54:04.133Z,1.92
2019-03-24T06:55:08.325Z,2.00
2019-03-24T06:56:11.646Z,2.22
2019-03-24T06:57:17.017Z,2.45
2019-03-24T06:58:21.057Z,2.30
2019-03-24T06:59:24.872Z,1.80
2019-03-24T07:00:28.031Z,2.40
2019-03-24T07:01:31.262Z,1.70
2019-03-24T07:02:34.715Z,2.10
2019-03-24T07:03:38.187Z,1.70
2019-03-24T07:04:41.545Z,1.75
2019-03-24T07:05:45.117Z,2.42
2019-03-24T07:06:48.491Z,1.92
2019-03-24T07:07:52.064Z,1.92
2019-03-24T07:08:55.316Z,1.47
2019-03-24T07:09:58.887Z,1.95
2019-03-24T07:11:02.126Z,2.02
2019-03-24T07:12:05.539Z,1.75
2019-03-24T07:13:09.000Z,2.08
2019-03-24T07:14:12.378Z,1.67
2019-03-24T07:15:15.751Z,1.50
2019-03-24T07:16:19.107Z,1.80
2019-03-24T07:17:22.353Z,2.25
2019-03-24T07:18:25.720Z,1.98
2019-03-24T07:19:29.168Z,1.80
2019-03-24T07:20:32.362Z,2.47
2019-03-24T07:21:35.847Z,1.80
2019-03-24T07:22:38.972Z,1.80
2019-03-24T07:23:42.373Z,2.37
2019-03-24T07:24:45.618Z,1.70
2019-03-24T07:25:49.096Z,1.70
2019-03-24T07:26:52.436Z,1.60
2019-03-24T07:27:55.756Z,1.30
2019-03-24T07:28:58.909Z,1.47
2019-03-24T07:30:02.077Z,2.75
2019-03-24T07:31:05.438Z,1.32
2019-03-24T07:32:08.796Z,1.55
2019-03-24T07:33:12.137Z,1.70
2019-03-24T07:34:15.451Z,1.40
2019-03-24T07:35:18.696Z,1.35
2019-03-24T07:36:21.945Z,1.60
2019-03-24T07:37:25.130Z,1.72
2019-03-24T07:38:28.655Z,1.72
2019-03-24T07:39:31.851Z,1.57
2019-03-24T07:40:35.179Z,1.65
2019-03-24T07:41:38.416Z,1.98
2019-03-24T07:42:41.820Z,2.20
2019-03-24T07:43:45.192Z,2.30
2019-03-24T07:44:48.677Z,1.60
2019-03-24T07:45:52.119Z,1.77
2019-03-24T07:46:55.385Z,2.47
2019-03-24T07:47:59.053Z,2.25
2019-03-24T07:49:02.191Z,1.82
2019-03-24T07:50:06.347Z,1.95
2019-03-24T07:51:09.480Z,2.00
2019-03-24T07:52:12.809Z,2.77
2019-03-24T07:53:16.277Z,1.95
2019-03-24T07:54:19.667Z,2.17
2019-03-24T07:55:23.139Z,1.65
2019-03-24T07:56:26.527Z,2.47
2019-03-24T07:57:29.667Z,1.80
2019-03-24T07:58:32.776Z,2.27
2019-03-24T07:59:36.045Z,2.52
2019-03-24T08:00:39.334Z,1.90
2019-03-24T08:01:42.500Z,2.15
2019-03-24T08:02:51.464Z,2.27
2019-03-24T08:03:54.880Z,2.20
2019-03-24T08:04:58.044Z,2.27
2019-03-24T08:06:01.218Z,2.02
2019-03-24T08:07:04.634Z,2.30
2019-03-24T08:08:07.813Z,2.25
2019-03-24T08:09:11.151Z,2.60
2019-03-24T08:10:14.927Z,2.33
2019-03-24T08:11:19.435Z,1.90
2019-03-24T08:12:22.793Z,2.90
2019-03-24T08:13:26.127Z,2.75
2019-03-24T08:14:29.443Z,2.35
2019-03-24T08:15:33.085Z,2.77
2019-03-24T08:16:36.347Z,3.20
2019-03-24T08:17:39.928Z,1.90
2019-03-24T08:18:43.180Z,2.77
2019-03-24T08:19:47.596Z,2.08
2019-03-24T08:20:50.914Z,2.12
2019-03-24T08:21:54.162Z,2.10
2019-03-24T08:22:57.487Z,2.22
2019-03-24T08:24:00.952Z,2.42
2019-03-24T08:25:04.759Z,1.98
2019-03-24T08:26:08.132Z,2.10
2019-03-24T08:27:11.297Z,2.12
2019-03-24T08:28:14.582Z,2.75
2019-03-24T08:29:18.012Z,2.22
2019-03-24T08:30:34.777Z,2.70
2019-03-24T08:31:38.448Z,3.30
2019-03-24T08:32:43.013Z,2.52
2019-03-24T08:33:46.533Z,3.12
2019-03-24T08:34:49.766Z,2.87
2019-03-24T08:35:53.062Z,2.27
2019-03-24T08:36:56.471Z,2.70
2019-03-24T08:38:01.457Z,2.77
2019-03-24T08:39:05.777Z,2.22
2019-03-24T08:40:09.310Z,2.70
2019-03-24T08:41:13.554Z,3.00
2019-03-24T08:42:17.072Z,2.10
2019-03-24T08:43:20.286Z,2.72
2019-03-24T08:44:23.462Z,2.80
2019-03-24T08:45:27.777Z,2.55
2019-03-24T08:46:31.278Z,2.47
2019-03-24T08:47:34.779Z,2.42
2019-03-24T08:48:41.171Z,3.37
2019-03-24T08:49:43.298Z,2.52
2019-03-24T08:50:46.442Z,2.30
2019-03-24T08:51:51.253Z,2.37
2019-03-24T08:52:54.638Z,2.47
2019-03-24T08:53:57.901Z,2.65
2019-03-24T08:55:01.242Z,2.67
2019-03-24T08:56:04.396Z,2.58
2019-03-24T08:57:07.885Z,2.47
2019-03-24T08:58:11.258Z,2.70
2019-03-24T08:59:14.392Z,2.42
2019-03-24T09:00:17.633Z,2.60
2019-03-24T09:01:21.130Z,2.98
2019-03-24T09:02:24.589Z,2.80
2019-03-24T09:03:27.859Z,3.25
2019-03-24T09:04:31.312Z,2.60
2019-03-24T09:05:34.511Z,2.42
2019-03-24T09:06:37.679Z,3.02
2019-03-24T09:07:40.832Z,2.98
2019-03-24T09:08:43.986Z,2.67
2019-03-24T09:09:47.203Z,2.75
2019-03-24T09:10:50.468Z,2.12
2019-03-24T09:11:53.812Z,2.72
2019-03-24T09:12:56.958Z,2.95
2019-03-24T09:14:00.606Z,2.40
2019-03-24T09:15:03.943Z,2.42
2019-03-24T09:16:07.474Z,2.52
2019-03-24T09:17:10.739Z,2.80
2019-03-24T09:18:14.180Z,2.37
2019-03-24T09:19:17.783Z,2.75
2019-03-24T09:20:21.074Z,2.80
2019-03-24T09:21:24.295Z,2.47
2019-03-24T09:22:27.761Z,3.20
2019-03-24T09:23:30.971Z,2.65
2019-03-24T09:24:34.162Z,2.98
2019-03-24T09:25:37.677Z,2.60
2019-03-24T09:26:41.201Z,2.12
2019-03-24T09:27:44.488Z,2.83
2019-03-24T09:28:47.778Z,2.92
2019-03-24T09:29:51.163Z,2.92
2019-03-24T09:30:54.303Z,2.65
2019-03-24T09:31:57.565Z,2.80
2019-03-24T09:33:00.950Z,3.02
2019-03-24T09:34:04.070Z,2.45
2019-03-24T09:35:07.341Z,2.67
2019-03-24T09:36:10.679Z,2.75
2019-03-24T09:37:14.206Z,3.27
2019-03-24T09:38:17.675Z,2.75
2019-03-24T09:39:21.010Z,2.90
2019-03-24T09:40:28.776Z,2.95
2019-03-24T09:41:32.078Z,2.83
2019-03-24T09:42:35.263Z,2.72
2019-03-24T09:43:38.613Z,2.65
2019-03-24T09:44:42.134Z,2.95
2019-03-24T09:45:45.291Z,3.05
2019-03-24T09:46:48.591Z,3.47
2019-03-24T09:47:51.700Z,3.00
2019-03-24T09:49:02.728Z,3.08
2019-03-24T09:50:00.329Z,2.30
2019-03-24T09:51:03.781Z,2.70
2019-03-24T09:52:07.252Z,3.08
2019-03-24T09:53:10.409Z,3.02
2019-03-24T09:54:13.643Z,2.75
2019-03-24T09:55:16.783Z,2.55
2019-03-24T09:56:20.070Z,2.90
2019-03-24T09:57:23.536Z,2.55
2019-03-24T09:58:26.918Z,2.87
2019-03-24T09:59:30.075Z,3.20
2019-03-24T10:00:33.561Z,2.12
2019-03-24T10:01:36.805Z,2.70
2019-03-24T10:02:39.944Z,2.60
2019-03-24T10:03:43.536Z,2.87
2019-03-24T10:04:46.711Z,2.92
2019-03-24T10:05:50.101Z,2.75
2019-03-24T10:06:53.351Z,2.67
2019-03-24T10:07:56.612Z,3.50
2019-03-24T10:08:59.874Z,2.77
2019-03-24T10:10:03.311Z,2.85
2019-03-24T10:11:06.719Z,2.30
2019-03-24T10:12:09.918Z,2.10
2019-03-24T10:13:13.420Z,2.70
2019-03-24T10:14:16.914Z,3.27
2019-03-24T10:15:20.354Z,2.70
2019-03-24T10:16:23.511Z,2.65
2019-03-24T10:17:26.939Z,2.55
2019-03-24T10:18:30.507Z,2.25
2019-03-24T10:19:33.730Z,2.50
2019-03-24T10:20:37.165Z,2.47
2019-03-24T10:21:40.420Z,2.50
2019-03-24T10:22:43.576Z,2.50
2019-03-24T10:23:46.882Z,2.83
2019-03-24T10:24:50.085Z,3.62
2019-03-24T10:25:53.241Z,3.00
2019-03-24T10:26:56.639Z,2.65
2019-03-24T10:28:00.036Z,2.60
2019-03-24T10:29:03.534Z,2.55
2019-03-24T10:30:07.170Z,2.67
2019-03-24T10:31:10.362Z,2.98
2019-03-24T10:32:13.566Z,2.20
2019-03-24T10:33:16.756Z,2.60
2019-03-24T10:34:20.117Z,2.33
2019-03-24T10:35:23.512Z,2.25
2019-03-24T10:36:26.603Z,2.33
2019-03-24T10:37:29.913Z,2.27
2019-03-24T10:38:33.163Z,2.72
2019-03-24T10:39:36.279Z,2.05
2019-03-24T10:40:39.548Z,2.45
2019-03-24T10:41:42.753Z,2.87
2019-03-24T10:42:46.010Z,2.45
2019-03-24T10:43:49.193Z,2.00
2019-03-24T10:44:53.117Z,2.33
2019-03-24T10:45:56.469Z,3.27
2019-03-24T10:46:59.945Z,2.60
2019-03-24T10:48:03.092Z,2.35
2019-03-24T10:49:06.236Z,1.90
2019-03-24T10:50:14.308Z,2.10
2019-03-24T10:51:17.527Z,2.62
2019-03-24T10:52:21.069Z,2.05
2019-03-24T10:53:24.264Z,2.50
2019-03-24T10:54:27.528Z,2.25
2019-03-24T10:55:30.865Z,2.20
2019-03-24T10:56:34.261Z,1.80
2019-03-24T10:57:38.098Z,1.95
2019-03-24T10:58:41.279Z,2.10
2019-03-24T10:59:44.590Z,1.95
2019-03-24T11:00:47.917Z,2.00
2019-03-24T11:01:51.311Z,1.98
2019-03-24T11:02:54.922Z,1.50
2019-03-24T11:03:58.310Z,1.77
2019-03-24T11:05:01.607Z,2.98
2019-03-24T11:06:05.121Z,1.77
2019-03-24T11:07:08.514Z,1.45
2019-03-24T11:08:11.990Z,1.80
2019-03-24T11:09:15.362Z,2.02
2019-03-24T11:10:18.875Z,2.50
2019-03-24T11:11:22.335Z,2.50
2019-03-24T11:12:25.561Z,2.25
2019-03-24T11:13:29.043Z,1.80
2019-03-24T11:14:32.433Z,1.92
2019-03-24T11:15:35.845Z,1.85
2019-03-24T11:16:39.188Z,2.15
2019-03-24T11:17:42.643Z,2.15
2019-03-24T11:18:46.037Z,2.08
2019-03-24T11:19:49.486Z,2.15
2019-03-24T11:20:52.766Z,1.55
2019-03-24T11:21:55.924Z,2.20
2019-03-24T11:22:59.190Z,2.30
2019-03-24T11:24:02.578Z,2.08
2019-03-24T11:25:07.971Z,1.70
2019-03-24T11:26:11.365Z,1.72
2019-03-24T11:27:14.611Z,1.77
2019-03-24T11:28:19.223Z,2.10
2019-03-24T11:29:22.971Z,1.67
2019-03-24T11:30:26.334Z,1.80
2019-03-24T11:31:29.533Z,1.80
2019-03-24T11:32:32.704Z,1.98
2019-03-24T11:33:37.463Z,1.60
2019-03-24T11:34:40.975Z,1.80
2019-03-24T11:35:44.441Z,2.15
2019-03-24T11:36:47.908Z,1.90
2019-03-24T11:37:51.141Z,1.85
2019-03-24T11:38:54.387Z,2.10
2019-03-24T11:39:57.736Z,1.92
2019-03-24T11:41:02.845Z,1.60
2019-03-24T11:42:07.203Z,1.98
2019-03-24T11:43:12.869Z,2.10
2019-03-24T11:44:16.646Z,1.75
2019-03-24T11:45:19.831Z,1.65
2019-03-24T11:46:23.172Z,2.20
2019-03-24T11:47:27.101Z,2.02
2019-03-24T11:48:30.522Z,1.80
2019-03-24T11:49:45.760Z,1.65
2019-03-24T11:50:41.897Z,2.30
2019-03-24T11:51:45.354Z,2.52
2019-03-24T11:52:48.835Z,1.77
2019-03-24T11:53:52.125Z,1.85
2019-03-24T11:54:55.386Z,2.35
2019-03-24T11:55:58.874Z,1.70
2019-03-24T11:57:02.236Z,1.90
2019-03-24T11:58:06.314Z,1.80
2019-03-24T11:59:09.763Z,1.92
2019-03-24T12:00:15.409Z,1.90
2019-03-24T12:01:18.623Z,1.80
2019-03-24T12:02:21.909Z,1.75
2019-03-24T12:03:25.523Z,1.92
2019-03-24T12:04:29.259Z,1.85
2019-03-24T12:05:35.241Z,1.82
2019-03-24T12:06:38.605Z,1.45
2019-03-24T12:07:41.782Z,1.70
2019-03-24T12:08:46.354Z,1.85
2019-03-24T12:09:49.553Z,1.40
2019-03-24T12:10:52.942Z,1.67
2019-03-24T12:11:56.303Z,1.67
2019-03-24T12:12:59.723Z,1.60
2019-03-24T12:14:02.947Z,1.80
2019-03-24T12:15:06.918Z,1.62
2019-03-24T12:16:10.279Z,1.82
2019-03-24T12:17:13.462Z,1.77
2019-03-24T12:18:16.887Z,1.65
2019-03-24T12:19:20.105Z,1.40
2019-03-24T12:20:23.265Z,1.55
2019-03-24T12:21:26.772Z,1.95
2019-03-24T12:22:29.941Z,1.62
2019-03-24T12:23:33.215Z,2.50
2019-03-24T12:24:36.786Z,1.57
2019-03-24T12:25:40.027Z,1.77
2019-03-24T12:26:43.493Z,1.47
2019-03-24T12:27:46.953Z,2.02
2019-03-24T12:28:50.153Z,1.85
2019-03-24T12:29:53.596Z,1.92
2019-03-24T12:30:56.952Z,1.87
2019-03-24T12:32:00.344Z,1.22
2019-03-24T12:33:04.140Z,1.60
2019-03-24T12:34:07.753Z,1.67
2019-03-24T12:35:11.011Z,1.80
2019-03-24T12:36:14.365Z,1.80
2019-03-24T12:37:17.527Z,1.47
2019-03-24T12:38:21.880Z,1.70
2019-03-24T12:39:25.146Z,1.80
2019-03-24T12:40:28.588Z,1.70
2019-03-24T12:41:31.767Z,1.92
2019-03-24T12:42:35.028Z,1.37
2019-03-24T12:43:38.284Z,1.60
2019-03-24T12:44:41.463Z,1.85
2019-03-24T12:45:44.711Z,1.90
2019-03-24T12:46:47.869Z,1.82
2019-03-24T12:47:51.067Z,1.55
2019-03-24T12:48:54.451Z,1.50
2019-03-24T12:50:08.334Z,1.60
2019-03-24T12:51:02.735Z,1.60
2019-03-24T12:52:05.910Z,1.95
2019-03-24T12:53:09.160Z,1.60
2019-03-24T12:54:12.665Z,1.62
2019-03-24T12:55:15.833Z,1.95
2019-03-24T12:56:21.264Z,2.08
2019-03-24T12:57:24.526Z,1.60
2019-03-24T12:58:27.733Z,1.90
2019-03-24T12:59:30.894Z,1.90
2019-03-24T13:00:38.736Z,1.37
2019-03-24T13:01:41.926Z,1.50
2019-03-24T13:02:45.100Z,2.27
2019-03-24T13:03:48.250Z,1.87
2019-03-24T13:04:51.439Z,1.70
2019-03-24T13:05:54.696Z,1.98
2019-03-24T13:06:57.915Z,1.72
2019-03-24T13:08:10.980Z,1.67
2019-03-24T13:09:14.389Z,2.10
2019-03-24T13:10:17.544Z,2.00
2019-03-24T13:11:20.849Z,1.62
2019-03-24T13:12:24.125Z,1.80
2019-03-24T13:13:28.952Z,1.40
2019-03-24T13:14:32.176Z,1.60
2019-03-24T13:15:35.623Z,1.60
2019-03-24T13:16:39.018Z,1.50
2019-03-24T13:17:42.484Z,1.40
2019-03-24T13:18:45.703Z,1.47
2019-03-24T13:19:49.030Z,1.82
2019-03-24T13:20:52.300Z,1.55
2019-03-24T13:21:55.530Z,1.65
2019-03-24T13:22:59.073Z,1.50
2019-03-24T13:24:02.282Z,1.92
2019-03-24T13:25:06.102Z,1.95
2019-03-24T13:26:09.366Z,1.62
2019-03-24T13:27:12.700Z,1.95
2019-03-24T13:28:15.992Z,1.50
2019-03-24T13:29:19.222Z,1.82
2019-03-24T13:30:22.437Z,2.17
2019-03-24T13:31:25.761Z,2.25
2019-03-24T13:32:28.998Z,1.77
2019-03-24T13:33:32.274Z,2.05
2019-03-24T13:34:35.509Z,1.40
2019-03-24T13:35:38.859Z,1.67
2019-03-24T13:36:42.027Z,1.65
2019-03-24T13:37:45.311Z,1.47
2019-03-24T13:38:48.489Z,1.37
2019-03-24T13:39:51.727Z,0.82
2019-03-24T13:40:54.927Z,1.40
2019-03-24T13:41:58.267Z,1.35
2019-03-24T13:43:02.621Z,1.32
2019-03-24T13:44:05.909Z,1.02
2019-03-24T13:45:09.099Z,0.80
2019-03-24T13:46:12.392Z,0.80
2019-03-24T13:47:15.554Z,1.20
2019-03-24T13:48:18.729Z,1.27
2019-03-24T13:49:22.011Z,1.10
2019-03-24T13:50:31.494Z,1.10
2019-03-24T13:51:30.688Z,1.50
2019-03-24T13:52:35.634Z,1.52
2019-03-24T13:53:39.185Z,1.47
2019-03-24T13:54:42.407Z,1.60
2019-03-24T13:55:45.791Z,1.47
2019-03-24T13:56:49.250Z,1.30
2019-03-24T13:57:52.431Z,1.00
2019-03-24T13:58:55.585Z,1.50
2019-03-24T13:59:59.098Z,1.20
2019-03-24T14:01:03.532Z,1.00
2019-03-24T14:02:06.948Z,1.70
2019-03-24T14:03:11.927Z,1.60
2019-03-24T14:04:15.303Z,1.77
2019-03-24T14:05:18.643Z,1.98
2019-03-24T14:06:21.907Z,2.00